createdAt,value
2019-03-08T00:00:03.106Z,7.90
2019-03-08T00:02:31.518Z,8.00
2019-03-08T00:04:59.991Z,8.00
2019-03-08T00:07:28.412Z,8.00
2019-03-08T00:09:57.170Z,8.00
2019-03-08T00:12:25.653Z,8.00
2019-03-08T00:14:54.054Z,7.90
2019-03-08T00:17:23.308Z,7.90
2019-03-08T00:19:51.706Z,7.90
2019-03-08T00:22:20.119Z,7.90
2019-03-08T00:24:48.758Z,7.90
2019-03-08T00:27:17.272Z,7.90
2019-03-08T00:29:45.919Z,7.90
2019-03-08T00:32:14.736Z,7.90
2019-03-08T00:34:43.177Z,7.90
2019-03-08T00:37:11.566Z,7.90
2019-03-08T00:39:39.983Z,7.90
2019-03-08T00:42:08.650Z,7.90
2019-03-08T00:44:37.311Z,7.80
2019-03-08T00:47:06.006Z,7.80
2019-03-08T00:49:34.807Z,7.70
2019-03-08T00:52:03.325Z,7.70
2019-03-08T00:54:31.792Z,7.70
2019-03-08T00:57:00.240Z,7.70
2019-03-08T00:59:29.108Z,7.60
2019-03-08T01:01:57.525Z,7.60
2019-03-08T01:04:26.030Z,7.60
2019-03-08T01:06:54.506Z,7.60
2019-03-08T01:09:23.294Z,7.60
2019-03-08T01:11:52.065Z,7.60
2019-03-08T01:14:20.767Z,7.60
2019-03-08T01:16:49.261Z,7.60
2019-03-08T01:19:17.677Z,7.50
2019-03-08T01:21:46.120Z,7.60
2019-03-08T01:24:14.626Z,7.60
2019-03-08T01:26:43.045Z,7.60
2019-03-08T01:29:11.833Z,7.60
2019-03-08T01:31:40.525Z,7.70
2019-03-08T01:34:08.938Z,7.70
2019-03-08T01:36:37.346Z,7.70
2019-03-08T01:39:07.848Z,7.70
2019-03-08T01:41:36.267Z,7.70
2019-03-08T01:44:05.007Z,7.70
2019-03-08T01:46:33.739Z,7.60
2019-03-08T01:49:02.144Z,7.70
2019-03-08T01:51:30.570Z,7.70
2019-03-08T01:53:59.347Z,7.70
2019-03-08T01:56:27.856Z,7.60
2019-03-08T01:58:56.276Z,7.60
2019-03-08T02:01:24.725Z,7.60
2019-03-08T02:03:53.146Z,7.50
2019-03-08T02:06:21.924Z,7.50
2019-03-08T02:08:50.688Z,7.30
2019-03-08T02:11:19.405Z,7.30
2019-03-08T02:13:48.214Z,7.20
2019-03-08T02:16:16.987Z,7.20
2019-03-08T02:18:45.693Z,7.20
2019-03-08T02:21:14.107Z,7.20
2019-03-08T02:23:42.775Z,7.10
2019-03-08T02:26:11.202Z,7.10
2019-03-08T02:28:39.871Z,7.10
2019-03-08T02:31:08.301Z,7.10
2019-03-08T02:33:36.719Z,7.10
2019-03-08T02:36:05.452Z,7.10
2019-03-08T02:38:33.884Z,7.10
2019-03-08T02:41:02.662Z,7.10
2019-03-08T02:43:31.071Z,7.20
2019-03-08T02:45:59.527Z,7.20
2019-03-08T02:48:27.944Z,7.20
2019-03-08T02:50:56.727Z,7.20
2019-03-08T02:53:25.161Z,7.20
2019-03-08T02:55:53.614Z,7.30
2019-03-08T02:58:22.007Z,7.30
2019-03-08T03:00:50.429Z,7.30
2019-03-08T03:03:19.806Z,7.30
2019-03-08T03:05:48.915Z,7.30
2019-03-08T03:08:17.607Z,7.30
2019-03-08T03:10:46.010Z,7.30
2019-03-08T03:13:14.435Z,7.30
2019-03-08T03:15:43.207Z,7.40
2019-03-08T03:18:12.577Z,7.40
2019-03-08T03:20:41.251Z,7.40
2019-03-08T03:23:10.021Z,7.40
2019-03-08T03:25:38.427Z,7.50
2019-03-08T03:28:06.834Z,7.50
2019-03-08T03:30:35.269Z,7.50
2019-03-08T03:33:03.689Z,7.60
2019-03-08T03:35:32.411Z,7.50
2019-03-08T03:38:00.901Z,7.50
2019-03-08T03:40:29.340Z,7.50
2019-03-08T03:42:57.762Z,7.50
2019-03-08T03:45:26.185Z,7.50
2019-03-08T03:47:54.626Z,7.50
2019-03-08T03:50:23.323Z,7.50
2019-03-08T03:52:51.825Z,7.50
2019-03-08T03:55:20.642Z,7.50
2019-03-08T03:57:49.431Z,7.50
2019-03-08T04:00:19.915Z,7.60
2019-03-08T04:02:48.691Z,7.50
2019-03-08T04:05:17.200Z,7.60
2019-03-08T04:07:45.694Z,7.70
2019-03-08T04:10:16.670Z,7.70
2019-03-08T04:12:45.422Z,7.60
2019-03-08T04:15:18.822Z,7.60
2019-03-08T04:17:47.700Z,7.60
2019-03-08T04:20:18.245Z,7.60
2019-03-08T04:22:46.818Z,7.60
2019-03-08T04:25:15.563Z,7.50
2019-03-08T04:27:44.065Z,7.50
2019-03-08T04:30:15.749Z,7.60
2019-03-08T04:32:44.162Z,7.60
2019-03-08T04:35:12.714Z,7.60
2019-03-08T04:37:41.116Z,7.60
2019-03-08T04:40:11.162Z,7.50
2019-03-08T04:42:39.933Z,7.50
2019-03-08T04:45:18.959Z,7.50
2019-03-08T04:47:47.394Z,7.50
2019-03-08T04:50:16.088Z,7.50
2019-03-08T04:52:44.506Z,7.60
2019-03-08T04:55:16.875Z,7.60
2019-03-08T04:57:45.565Z,7.60
2019-03-08T05:00:18.318Z,7.60
2019-03-08T05:02:46.807Z,7.60
2019-03-08T05:05:15.360Z,7.60
2019-03-08T05:07:43.919Z,7.60
2019-03-08T05:10:19.717Z,7.60
2019-03-08T05:12:48.255Z,7.60
2019-03-08T05:15:16.913Z,7.60
2019-03-08T05:17:45.328Z,7.50
2019-03-08T05:20:13.919Z,7.60
2019-03-08T05:22:42.385Z,7.60
2019-03-08T05:25:12.454Z,7.60
2019-03-08T05:27:41.187Z,7.60
2019-03-08T05:30:13.144Z,7.70
2019-03-08T05:32:41.667Z,7.70
2019-03-08T05:35:10.806Z,7.70
2019-03-08T05:37:39.679Z,7.60
2019-03-08T05:40:10.226Z,7.60
2019-03-08T05:42:38.637Z,7.50
2019-03-08T05:45:11.650Z,7.60
2019-03-08T05:47:40.082Z,7.50
2019-03-08T05:50:10.377Z,7.50
2019-03-08T05:52:38.787Z,7.50
2019-03-08T05:55:10.072Z,7.50
2019-03-08T05:57:38.786Z,7.50
2019-03-08T06:00:15.156Z,7.50
2019-03-08T06:02:43.578Z,7.40
2019-03-08T06:05:12.031Z,7.50
2019-03-08T06:07:40.529Z,7.50
2019-03-08T06:10:29.461Z,7.50
2019-03-08T06:12:58.612Z,7.50
2019-03-08T06:15:27.261Z,7.50
2019-03-08T06:17:56.518Z,7.50
2019-03-08T06:20:25.194Z,7.50
2019-03-08T06:22:53.693Z,7.50
2019-03-08T06:25:22.314Z,7.50
2019-03-08T06:27:50.727Z,7.40
2019-03-08T06:30:19.326Z,7.40
2019-03-08T06:32:47.814Z,7.50
2019-03-08T06:35:16.229Z,7.50
2019-03-08T06:37:44.641Z,7.60
2019-03-08T06:40:14.336Z,7.60
2019-03-08T06:42:42.767Z,7.50
2019-03-08T06:45:16.738Z,7.50
2019-03-08T06:47:45.461Z,7.50
2019-03-08T06:50:15.348Z,7.50
2019-03-08T06:52:43.933Z,7.50
2019-03-08T06:55:13.688Z,7.50
2019-03-08T06:57:42.101Z,7.50
2019-03-08T07:00:19.670Z,7.50
2019-03-08T07:02:48.370Z,7.50
2019-03-08T07:05:16.787Z,7.50
2019-03-08T07:07:45.205Z,7.40
2019-03-08T07:10:13.632Z,7.40
2019-03-08T07:12:42.043Z,7.40
2019-03-08T07:15:10.525Z,7.40
2019-03-08T07:17:38.977Z,7.40
2019-03-08T07:20:26.555Z,7.40
2019-03-08T07:23:02.469Z,7.40
2019-03-08T07:25:50.944Z,7.50
2019-03-08T07:28:28.909Z,7.50
2019-03-08T07:31:15.508Z,7.50
2019-03-08T07:34:02.548Z,7.50
2019-03-08T07:36:35.857Z,7.50
2019-03-08T07:39:10.753Z,7.50
2019-03-08T07:41:43.487Z,7.50
2019-03-08T07:44:13.527Z,7.50
2019-03-08T07:47:00.558Z,7.50
2019-03-08T07:49:47.063Z,7.50
2019-03-08T07:52:33.687Z,7.60
2019-03-08T07:55:04.048Z,7.60
2019-03-08T07:57:49.408Z,7.60
2019-03-08T08:00:19.851Z,7.70
2019-03-08T08:03:03.641Z,7.70
2019-03-08T08:05:47.415Z,7.60
2019-03-08T08:08:30.196Z,7.80
2019-03-08T08:11:09.435Z,8.00
2019-03-08T08:13:45.869Z,8.10
2019-03-08T08:16:24.999Z,8.10
2019-03-08T08:19:01.450Z,8.20
2019-03-08T08:21:38.130Z,8.20
2019-03-08T08:24:17.063Z,8.20
2019-03-08T08:26:56.095Z,8.10
2019-03-08T08:29:41.805Z,8.20
2019-03-08T08:32:23.856Z,8.10
2019-03-08T08:34:54.277Z,8.20
2019-03-08T08:37:24.694Z,8.30
2019-03-08T08:40:10.898Z,8.20
2019-03-08T08:42:44.213Z,8.20
2019-03-08T08:45:26.742Z,8.30
2019-03-08T08:47:56.805Z,8.20
2019-03-08T08:50:32.648Z,8.30
2019-03-08T08:53:18.940Z,8.40
2019-03-08T08:56:04.765Z,8.50
2019-03-08T08:58:38.065Z,8.70
2019-03-08T09:01:10.985Z,8.80
2019-03-08T09:03:43.758Z,8.80
2019-03-08T09:06:14.189Z,8.90
2019-03-08T09:08:50.559Z,8.80
2019-03-08T09:11:23.993Z,8.60
2019-03-08T09:13:54.403Z,8.50
2019-03-08T09:16:43.093Z,8.10
2019-03-08T09:19:19.352Z,8.00
2019-03-08T09:21:49.519Z,7.80
2019-03-08T09:24:19.593Z,7.70
2019-03-08T09:26:52.923Z,7.70
2019-03-08T09:29:23.024Z,7.80
2019-03-08T09:31:56.054Z,7.80
2019-03-08T09:34:38.111Z,7.90
2019-03-08T09:37:17.170Z,8.10
2019-03-08T09:39:47.242Z,8.20
2019-03-08T09:42:19.757Z,8.30
2019-03-08T09:45:06.148Z,8.30
2019-03-08T09:47:39.034Z,8.30
2019-03-08T09:50:15.887Z,8.30
2019-03-08T09:52:46.034Z,8.40
2019-03-08T09:55:16.522Z,8.50
2019-03-08T09:58:03.083Z,8.70
2019-03-08T10:00:33.358Z,9.10
2019-03-08T10:03:09.330Z,9.30
2019-03-08T10:05:39.668Z,9.40
2019-03-08T10:08:12.841Z,9.80
2019-03-08T10:10:45.611Z,10.10
2019-03-08T10:13:16.036Z,10.30
2019-03-08T10:15:49.612Z,10.40
2019-03-08T10:18:31.603Z,10.30
2019-03-08T10:21:04.401Z,10.20
2019-03-08T10:23:37.439Z,10.20
2019-03-08T10:26:08.063Z,10.20
2019-03-08T10:28:38.413Z,10.10
2019-03-08T10:31:08.753Z,10.10
2019-03-08T10:33:55.250Z,10.10
2019-03-08T10:36:31.528Z,10.20
2019-03-08T10:39:17.879Z,10.50
2019-03-08T10:42:04.336Z,10.50
2019-03-08T10:44:37.007Z,10.30
2019-03-08T10:47:23.578Z,10.50
2019-03-08T10:49:59.748Z,10.50
2019-03-08T10:52:29.809Z,10.10
2019-03-08T10:55:14.949Z,10.00
2019-03-08T10:57:47.978Z,10.10
2019-03-08T11:00:36.983Z,10.00
2019-03-08T11:03:13.131Z,10.10
2019-03-08T11:05:49.271Z,10.10
2019-03-08T11:08:19.619Z,10.10
2019-03-08T11:10:49.963Z,10.20
2019-03-08T11:13:20.044Z,10.20
2019-03-08T11:15:50.102Z,10.10
2019-03-08T11:18:23.140Z,9.80
2019-03-08T11:20:59.396Z,9.60
2019-03-08T11:23:35.149Z,9.60
2019-03-08T11:26:08.480Z,9.80
2019-03-08T11:28:38.910Z,9.90
2019-03-08T11:31:09.005Z,10.30
2019-03-08T11:33:41.800Z,10.90
2019-03-08T11:36:13.763Z,11.30
2019-03-08T11:38:44.273Z,12.00
2019-03-08T11:41:14.643Z,12.30
2019-03-08T11:44:03.059Z,12.50
2019-03-08T11:46:42.327Z,12.90
2019-03-08T11:49:29.009Z,13.60
2019-03-08T11:51:59.142Z,13.90
2019-03-08T11:54:40.690Z,14.50
2019-03-08T11:57:22.256Z,14.30
2019-03-08T11:59:55.664Z,14.00
2019-03-08T12:02:42.402Z,14.40
2019-03-08T12:05:27.883Z,13.90
2019-03-08T12:08:00.688Z,13.10
2019-03-08T12:10:34.180Z,12.80
2019-03-08T12:13:10.466Z,12.70
2019-03-08T12:15:40.805Z,13.40
2019-03-08T12:18:10.908Z,14.20
2019-03-08T12:20:43.744Z,15.00
2019-03-08T12:23:19.717Z,15.20
2019-03-08T12:26:08.204Z,15.40
2019-03-08T12:28:44.293Z,16.00
2019-03-08T12:31:30.570Z,16.50
2019-03-08T12:34:01.302Z,16.30
2019-03-08T12:36:47.949Z,16.10
2019-03-08T12:39:18.078Z,16.00
2019-03-08T12:41:54.210Z,17.10
2019-03-08T12:44:24.275Z,17.80
2019-03-08T12:46:57.447Z,16.80
2019-03-08T12:49:36.419Z,15.90
2019-03-08T12:52:12.379Z,15.20
2019-03-08T12:54:48.196Z,14.20
2019-03-08T12:57:18.555Z,13.30
2019-03-08T12:59:48.907Z,12.50
2019-03-08T13:02:22.110Z,11.80
2019-03-08T13:04:52.153Z,11.30
2019-03-08T13:07:38.475Z,11.00
2019-03-08T13:10:11.483Z,10.60
2019-03-08T13:12:39.881Z,10.50
2019-03-08T13:15:13.966Z,10.40
2019-03-08T13:17:42.480Z,10.10
2019-03-08T13:20:17.091Z,10.00
2019-03-08T13:22:45.597Z,10.00
2019-03-08T13:25:14.903Z,10.10
2019-03-08T13:27:43.323Z,10.80
2019-03-08T13:30:20.931Z,11.90
2019-03-08T13:32:49.356Z,13.20
2019-03-08T13:35:18.215Z,14.30
2019-03-08T13:37:46.726Z,15.30
2019-03-08T13:40:16.862Z,16.10
2019-03-08T13:42:45.362Z,16.70
2019-03-08T13:45:18.753Z,17.20
2019-03-08T13:47:47.174Z,17.40
2019-03-08T13:50:16.553Z,17.10
2019-03-08T13:52:45.540Z,15.50
2019-03-08T13:55:15.787Z,14.20
2019-03-08T13:57:44.255Z,13.40
2019-03-08T14:00:19.741Z,13.10
2019-03-08T14:02:48.146Z,12.60
2019-03-08T14:05:16.919Z,12.30
2019-03-08T14:07:45.414Z,11.60
2019-03-08T14:10:18.469Z,12.00
2019-03-08T14:12:47.221Z,13.30
2019-03-08T14:15:16.678Z,14.60
2019-03-08T14:17:45.159Z,15.80
2019-03-08T14:20:17.297Z,16.50
2019-03-08T14:22:45.722Z,15.90
2019-03-08T14:25:14.154Z,15.60
2019-03-08T14:27:42.783Z,15.00
2019-03-08T14:30:17.865Z,14.50
2019-03-08T14:32:46.548Z,14.00
2019-03-08T14:35:15.428Z,13.60
2019-03-08T14:37:44.862Z,13.00
2019-03-08T14:40:20.753Z,12.50
2019-03-08T14:43:00.473Z,12.10
2019-03-08T14:45:30.542Z,11.70
2019-03-08T14:47:59.303Z,11.40
2019-03-08T14:50:28.005Z,11.10
2019-03-08T14:52:56.856Z,11.80
2019-03-08T14:55:25.700Z,13.00
2019-03-08T14:57:55.330Z,13.90
2019-03-08T15:00:25.481Z,14.00
2019-03-08T15:02:54.861Z,13.70
2019-03-08T15:05:23.563Z,13.40
2019-03-08T15:07:52.269Z,13.10
2019-03-08T15:10:20.881Z,12.80
2019-03-08T15:12:49.601Z,12.50
2019-03-08T15:15:18.362Z,12.40
2019-03-08T15:17:49.626Z,12.90
2019-03-08T15:20:18.789Z,13.30
2019-03-08T15:22:47.492Z,14.40
2019-03-08T15:25:16.431Z,15.30
2019-03-08T15:27:44.862Z,15.50
2019-03-08T15:30:18.229Z,16.30
2019-03-08T15:32:46.815Z,17.60
2019-03-08T15:35:16.849Z,18.50
2019-03-08T15:37:45.359Z,19.00
2019-03-08T15:40:23.492Z,19.00
2019-03-08T15:42:51.993Z,18.30
2019-03-08T15:45:20.606Z,17.60
2019-03-08T15:47:49.428Z,17.30
2019-03-08T15:50:19.100Z,16.30
2019-03-08T15:52:47.738Z,15.60
2019-03-08T15:55:16.225Z,15.00
2019-03-08T15:57:44.743Z,14.60
2019-03-08T16:00:18.285Z,14.30
2019-03-08T16:02:46.720Z,14.10
2019-03-08T16:05:17.313Z,13.90
2019-03-08T16:07:45.802Z,13.70
2019-03-08T16:10:23.005Z,13.50
2019-03-08T16:12:51.728Z,13.30
2019-03-08T16:15:20.416Z,13.30
2019-03-08T16:17:48.897Z,13.10
2019-03-08T16:20:18.568Z,13.00
2019-03-08T16:22:47.257Z,12.90
2019-03-08T16:25:16.798Z,12.80
2019-03-08T16:27:45.653Z,12.50
2019-03-08T16:30:30.627Z,12.50
2019-03-08T16:33:09.253Z,12.50
2019-03-08T16:35:51.251Z,12.10
2019-03-08T16:38:24.077Z,11.90
2019-03-08T16:40:56.974Z,11.70
2019-03-08T16:43:33.034Z,11.50
2019-03-08T16:46:17.558Z,11.40
2019-03-08T16:48:50.004Z,11.30
2019-03-08T16:51:20.087Z,11.30
2019-03-08T16:53:59.075Z,11.30
2019-03-08T16:56:45.433Z,11.40
2019-03-08T16:59:21.952Z,11.30
2019-03-08T17:02:08.577Z,11.20
2019-03-08T17:04:44.975Z,11.20
2019-03-08T17:07:20.823Z,11.10
2019-03-08T17:09:50.879Z,11.10
2019-03-08T17:12:37.499Z,10.90
2019-03-08T17:15:25.823Z,10.80
2019-03-08T17:18:01.831Z,10.80
2019-03-08T17:20:31.907Z,10.70
2019-03-08T17:23:04.785Z,10.80
2019-03-08T17:25:37.933Z,10.80
2019-03-08T17:28:13.647Z,10.90
2019-03-08T17:30:59.967Z,10.80
2019-03-08T17:33:36.288Z,10.90
2019-03-08T17:36:09.394Z,10.90
2019-03-08T17:38:42.594Z,10.90
2019-03-08T17:41:16.017Z,10.90
2019-03-08T17:44:02.527Z,10.90
2019-03-08T17:46:35.532Z,11.00
2019-03-08T17:49:05.964Z,11.00
2019-03-08T17:51:42.436Z,10.90
2019-03-08T17:54:12.555Z,10.90
2019-03-08T17:56:48.673Z,10.90
2019-03-08T17:59:19.082Z,10.80
2019-03-08T18:01:54.881Z,10.90
2019-03-08T18:04:24.948Z,10.80
2019-03-08T18:07:01.075Z,10.80
2019-03-08T18:09:49.563Z,10.70
2019-03-08T18:12:35.936Z,10.50
2019-03-08T18:15:11.122Z,10.50
2019-03-08T18:17:47.050Z,10.50
2019-03-08T18:20:23.642Z,10.50
2019-03-08T18:23:06.505Z,10.40
2019-03-08T18:25:42.473Z,10.40
2019-03-08T18:28:21.218Z,10.40
2019-03-08T18:30:54.342Z,10.40
2019-03-08T18:33:30.659Z,10.30
2019-03-08T18:36:09.538Z,10.20
2019-03-08T18:38:45.585Z,10.10
2019-03-08T18:41:31.381Z,10.10
2019-03-08T18:44:19.835Z,10.10
2019-03-08T18:46:52.798Z,10.00
2019-03-08T18:49:23.186Z,10.20
2019-03-08T18:51:53.268Z,10.20
2019-03-08T18:54:26.281Z,10.30
2019-03-08T18:56:56.603Z,10.30
2019-03-08T18:59:29.953Z,10.40
2019-03-08T19:02:00.022Z,10.20
2019-03-08T19:04:32.827Z,10.10
2019-03-08T19:07:03.227Z,10.00
2019-03-08T19:09:42.338Z,9.70
2019-03-08T19:12:27.746Z,9.70
2019-03-08T19:15:00.800Z,9.50
2019-03-08T19:17:30.846Z,9.50
2019-03-08T19:20:03.614Z,9.50
2019-03-08T19:22:33.848Z,9.50
2019-03-08T19:25:20.013Z,9.50
2019-03-08T19:27:50.068Z,9.60
2019-03-08T19:30:35.531Z,9.60
2019-03-08T19:33:15.092Z,9.60
2019-03-08T19:36:01.363Z,9.70
2019-03-08T19:38:44.039Z,9.70
2019-03-08T19:41:16.939Z,9.70
2019-03-08T19:43:46.992Z,9.70
2019-03-08T19:46:33.408Z,9.50
2019-03-08T19:49:18.223Z,8.80
2019-03-08T19:51:48.294Z,8.30
2019-03-08T19:54:27.220Z,8.00
2019-03-08T19:57:15.422Z,7.90
2019-03-08T19:59:48.691Z,7.80
2019-03-08T20:02:27.718Z,7.90
2019-03-08T20:05:00.697Z,7.90
2019-03-08T20:07:30.756Z,8.00
2019-03-08T20:10:12.777Z,8.20
2019-03-08T20:12:52.368Z,8.30
2019-03-08T20:15:37.789Z,8.50
2019-03-08T20:18:25.877Z,8.50
2019-03-08T20:20:58.953Z,8.60
2019-03-08T20:23:44.387Z,8.60
2019-03-08T20:26:14.715Z,8.70
2019-03-08T20:28:44.795Z,8.60
2019-03-08T20:31:14.860Z,8.50
2019-03-08T20:33:54.415Z,8.40
2019-03-08T20:36:40.232Z,8.40
2019-03-08T20:39:10.637Z,8.30
2019-03-08T20:41:41.020Z,8.20
2019-03-08T20:44:11.086Z,8.20
2019-03-08T20:46:44.052Z,8.20
2019-03-08T20:49:12.485Z,8.10
2019-03-08T20:51:40.982Z,8.10
2019-03-08T20:54:09.452Z,8.00
2019-03-08T20:56:37.897Z,8.00
2019-03-08T20:59:06.674Z,8.00
2019-03-08T21:01:35.164Z,8.00
2019-03-08T21:04:03.787Z,8.00
2019-03-08T21:06:32.600Z,8.00
2019-03-08T21:09:00.991Z,8.00
2019-03-08T21:11:29.422Z,7.90
2019-03-08T21:13:57.826Z,7.80
2019-03-08T21:16:26.561Z,7.80
2019-03-08T21:18:54.976Z,7.90
2019-03-08T21:21:23.460Z,7.90
2019-03-08T21:23:51.885Z,8.00
2019-03-08T21:26:20.325Z,8.00
2019-03-08T21:28:49.128Z,8.10
2019-03-08T21:31:17.532Z,8.10
2019-03-08T21:33:46.220Z,8.20
2019-03-08T21:36:15.022Z,8.20
2019-03-08T21:38:43.525Z,8.30
2019-03-08T21:41:12.165Z,8.30
2019-03-08T21:43:40.930Z,8.30
2019-03-08T21:46:09.646Z,8.30
2019-03-08T21:48:38.126Z,8.30
2019-03-08T21:51:06.917Z,8.30
2019-03-08T21:53:35.734Z,8.40
2019-03-08T21:56:04.153Z,8.40
2019-03-08T21:58:32.565Z,8.40
2019-03-08T22:01:01.007Z,8.50
2019-03-08T22:03:29.689Z,8.50
2019-03-08T22:05:58.087Z,8.50
2019-03-08T22:08:26.777Z,8.50
2019-03-08T22:10:56.848Z,8.50
2019-03-08T22:13:25.624Z,8.50
2019-03-08T22:15:54.020Z,8.50
2019-03-08T22:18:22.473Z,8.50
2019-03-08T22:20:51.497Z,8.50
2019-03-08T22:23:19.907Z,8.50
2019-03-08T22:25:48.590Z,8.50
2019-03-08T22:28:16.999Z,8.50
2019-03-08T22:30:45.679Z,8.50
2019-03-08T22:33:14.121Z,8.50
2019-03-08T22:35:42.561Z,8.60
2019-03-08T22:38:11.303Z,8.60
2019-03-08T22:40:39.814Z,8.60
2019-03-08T22:43:08.560Z,8.60
2019-03-08T22:45:36.986Z,8.60
2019-03-08T22:48:05.773Z,8.60
2019-03-08T22:50:34.211Z,8.60
2019-03-08T22:53:03.041Z,8.60
2019-03-08T22:55:31.740Z,8.70
2019-03-08T22:58:00.167Z,8.70
2019-03-08T23:00:51.437Z,8.70
2019-03-08T23:03:20.261Z,8.70
2019-03-08T23:05:48.681Z,8.60
2019-03-08T23:08:17.120Z,8.60
2019-03-08T23:10:45.913Z,8.60
2019-03-08T23:13:14.402Z,8.60
2019-03-08T23:15:43.142Z,8.60
2019-03-08T23:18:11.843Z,8.70
2019-03-08T23:20:40.275Z,8.70
2019-03-08T23:23:08.817Z,8.60
2019-03-08T23:25:37.634Z,8.50
2019-03-08T23:28:23.446Z,8.40
2019-03-08T23:31:02.483Z,8.40
2019-03-08T23:33:30.880Z,8.30
2019-03-08T23:35:59.679Z,8.30
2019-03-08T23:38:28.359Z,8.20
2019-03-08T23:40:57.050Z,8.20
2019-03-08T23:43:25.477Z,8.20
2019-03-08T23:45:54.154Z,8.20
2019-03-08T23:48:22.590Z,8.20
2019-03-08T23:50:51.331Z,8.10
2019-03-08T23:53:20.032Z,8.10
2019-03-08T23:55:48.470Z,8.00
2019-03-08T23:58:16.961Z,8.00
